createdAt,value
2022-10-03T00:01:04.882Z,1.83
2022-10-03T00:03:55.292Z,1.45
2022-10-03T00:06:34.619Z,1.80
2022-10-03T00:09:31.741Z,1.63
2022-10-03T00:12:11.252Z,1.30
2022-10-03T00:14:54.711Z,1.83
2022-10-03T00:17:29.337Z,1.50
2022-10-03T00:20:33.998Z,1.40
2022-10-03T00:23:18.762Z,1.33
2022-10-03T00:26:28.380Z,1.58
2022-10-03T00:28:58.401Z,1.65
2022-10-03T00:31:37.211Z,1.80
2022-10-03T00:34:30.849Z,2.20
2022-10-03T00:37:24.021Z,1.63
2022-10-03T00:40:15.983Z,2.20
2022-10-03T00:43:08.215Z,1.55
2022-10-03T00:46:13.529Z,1.95
2022-10-03T00:48:58.819Z,1.90
2022-10-03T00:51:45.688Z,1.92
2022-10-03T00:54:42.298Z,2.10
2022-10-03T00:57:23.306Z,1.60
2022-10-03T01:00:19.134Z,1.98
2022-10-03T01:02:51.823Z,2.63
2022-10-03T01:05:33.572Z,1.88
2022-10-03T01:08:22.213Z,1.50
2022-10-03T01:11:09.748Z,1.75
2022-10-03T01:13:36.356Z,1.48
2022-10-03T01:16:18.015Z,1.48
2022-10-03T01:19:17.161Z,1.50
2022-10-03T01:21:50.410Z,1.90
2022-10-03T01:24:44.113Z,1.70
2022-10-03T01:27:21.801Z,1.40
2022-10-03T01:30:17.566Z,1.48
2022-10-03T01:33:06.153Z,1.52
2022-10-03T01:36:03.004Z,1.75
2022-10-03T01:38:36.729Z,1.77
2022-10-03T01:41:12.456Z,1.40
2022-10-03T01:44:24.437Z,1.40
2022-10-03T01:47:00.163Z,1.88
2022-10-03T01:50:12.664Z,2.10
2022-10-03T01:52:48.119Z,2.25
2022-10-03T01:55:23.572Z,1.40
2022-10-03T01:58:17.789Z,2.13
2022-10-03T02:01:07.773Z,1.40
2022-10-03T02:03:56.944Z,1.65
2022-10-03T02:06:32.388Z,1.90
2022-10-03T02:09:29.061Z,1.30
2022-10-03T02:12:23.681Z,2.05
2022-10-03T02:15:14.284Z,1.60
2022-10-03T02:17:48.644Z,1.20
2022-10-03T02:20:39.432Z,1.73
2022-10-03T02:23:25.389Z,1.50
2022-10-03T02:26:07.137Z,1.73
2022-10-03T02:28:36.825Z,1.38
2022-10-03T02:31:59.759Z,1.83
2022-10-03T02:34:48.856Z,1.50
2022-10-03T02:37:53.408Z,1.63
2022-10-03T02:40:38.572Z,1.33
2022-10-03T02:43:33.032Z,1.77
2022-10-03T02:46:25.317Z,1.40
2022-10-03T02:49:27.886Z,1.60
2022-10-03T02:52:23.647Z,1.33
2022-10-03T02:55:23.104Z,1.67
2022-10-03T02:58:31.506Z,1.23
2022-10-03T03:01:13.611Z,1.67
2022-10-03T03:03:46.504Z,1.42
2022-10-03T03:06:29.873Z,1.33
2022-10-03T03:09:17.964Z,1.77
2022-10-03T03:12:09.286Z,2.15
2022-10-03T03:15:30.333Z,1.55
2022-10-03T03:18:10.015Z,1.48
2022-10-03T03:20:45.865Z,2.63
2022-10-03T03:23:42.684Z,1.92
2022-10-03T03:26:35.325Z,1.50
2022-10-03T03:29:20.892Z,1.95
2022-10-03T03:32:13.864Z,1.63
2022-10-03T03:34:52.968Z,1.25
2022-10-03T03:37:43.876Z,1.70
2022-10-03T03:40:32.636Z,1.40
2022-10-03T03:43:10.612Z,1.55
2022-10-03T03:46:06.783Z,1.75
2022-10-03T03:49:09.069Z,1.45
2022-10-03T03:51:48.749Z,1.90
2022-10-03T03:54:19.352Z,1.58
2022-10-03T03:57:12.456Z,1.33
2022-10-03T03:59:45.760Z,1.60
2022-10-03T04:02:38.323Z,2.33
2022-10-03T04:05:11.815Z,1.80
2022-10-03T04:08:00.494Z,1.83
2022-10-03T04:10:42.279Z,2.33
2022-10-03T04:13:18.788Z,1.48
2022-10-03T04:16:48.401Z,1.65
2022-10-03T04:19:53.452Z,1.63
2022-10-03T04:22:34.728Z,1.80
2022-10-03T04:25:32.294Z,1.58
2022-10-03T04:28:07.808Z,1.58
2022-10-03T04:30:46.210Z,1.75
2022-10-03T04:33:12.862Z,2.15
2022-10-03T04:35:42.095Z,2.03
2022-10-03T04:38:32.173Z,2.05
2022-10-03T04:41:19.965Z,2.70
2022-10-03T04:44:04.322Z,2.20
2022-10-03T04:46:46.719Z,2.40
2022-10-03T04:49:20.626Z,1.90
2022-10-03T04:51:59.206Z,2.60
2022-10-03T04:55:05.013Z,2.03
2022-10-03T04:57:44.850Z,1.95
2022-10-03T05:00:29.914Z,2.42
2022-10-03T05:03:16.459Z,1.95
2022-10-03T05:06:00.460Z,1.95
2022-10-03T05:08:33.262Z,1.92
2022-10-03T05:11:34.092Z,1.80
2022-10-03T05:14:12.072Z,2.25
2022-10-03T05:16:54.686Z,1.88
2022-10-03T05:19:41.508Z,2.40
2022-10-03T05:22:49.603Z,1.60
2022-10-03T05:25:53.450Z,1.83
2022-10-03T05:28:29.218Z,1.63
2022-10-03T05:31:04.165Z,1.70
2022-10-03T05:34:00.079Z,1.95
2022-10-03T05:36:57.461Z,1.48
2022-10-03T05:39:35.601Z,1.70
2022-10-03T05:42:41.013Z,1.52
2022-10-03T05:45:21.601Z,2.40
2022-10-03T05:48:00.087Z,1.63
2022-10-03T05:51:00.761Z,1.60
2022-10-03T05:53:59.834Z,1.85
2022-10-03T05:56:47.867Z,2.00
2022-10-03T05:59:23.313Z,2.20
2022-10-03T06:02:08.455Z,2.03
2022-10-03T06:04:57.254Z,2.08
2022-10-03T06:07:49.498Z,1.98
2022-10-03T06:10:39.547Z,2.50
2022-10-03T06:13:30.551Z,2.65
2022-10-03T06:16:25.741Z,1.92
2022-10-03T06:19:06.275Z,1.95
2022-10-03T06:22:34.724Z,2.72
2022-10-03T06:25:16.093Z,2.50
2022-10-03T06:28:02.409Z,2.22
2022-10-03T06:31:27.171Z,1.63
2022-10-03T06:33:56.213Z,1.77
2022-10-03T06:36:34.972Z,2.63
2022-10-03T06:39:44.164Z,1.90
2022-10-03T06:42:40.867Z,2.28
2022-10-03T06:45:35.294Z,1.95
2022-10-03T06:48:13.926Z,2.20
2022-10-03T06:51:01.839Z,1.88
2022-10-03T06:53:55.088Z,2.85
2022-10-03T06:56:50.142Z,2.00
2022-10-03T06:59:26.437Z,2.50
2022-10-03T07:02:21.276Z,1.98
2022-10-03T07:05:26.225Z,2.00
2022-10-03T07:08:07.876Z,2.50
2022-10-03T07:10:44.104Z,2.05
2022-10-03T07:13:42.818Z,1.98
2022-10-03T07:16:35.570Z,1.98
2022-10-03T07:19:20.258Z,2.40
2022-10-03T07:22:01.766Z,1.92
2022-10-03T07:25:05.225Z,2.03
2022-10-03T07:28:09.030Z,1.88
2022-10-03T07:30:55.982Z,2.55
2022-10-03T07:33:38.848Z,1.90
2022-10-03T07:37:12.353Z,1.70
2022-10-03T07:40:12.628Z,1.80
2022-10-03T07:43:09.531Z,1.73
2022-10-03T07:46:04.341Z,1.80
2022-10-03T07:48:45.251Z,2.08
2022-10-03T07:51:32.618Z,2.47
2022-10-03T07:54:33.589Z,2.00
2022-10-03T07:57:06.611Z,2.03
2022-10-03T08:00:06.994Z,2.25
2022-10-03T08:02:57.996Z,1.75
2022-10-03T08:05:57.956Z,2.00
2022-10-03T08:08:50.253Z,1.98
2022-10-03T08:11:53.402Z,1.83
2022-10-03T08:14:28.882Z,1.90
2022-10-03T08:17:11.645Z,2.00
2022-10-03T08:20:09.437Z,1.85
2022-10-03T08:22:54.787Z,1.70
2022-10-03T08:25:27.559Z,1.38
2022-10-03T08:28:06.136Z,1.40
2022-10-03T08:31:04.234Z,1.80
2022-10-03T08:33:39.772Z,1.95
2022-10-03T08:36:32.215Z,1.33
2022-10-03T08:39:13.356Z,1.77
2022-10-03T08:42:03.901Z,2.03
2022-10-03T08:44:40.476Z,1.75
2022-10-03T08:47:25.371Z,1.95
2022-10-03T08:50:07.838Z,1.40
2022-10-03T08:53:24.555Z,1.80
2022-10-03T08:56:15.244Z,1.88
2022-10-03T08:58:57.086Z,1.63
2022-10-03T09:01:23.723Z,1.92
2022-10-03T09:04:38.021Z,1.77
2022-10-03T09:07:23.110Z,1.50
2022-10-03T09:10:21.959Z,1.63
2022-10-03T09:13:06.612Z,1.60
2022-10-03T09:15:54.583Z,1.63
2022-10-03T09:18:46.722Z,1.90
2022-10-03T09:22:00.379Z,1.73
2022-10-03T09:24:45.843Z,1.83
2022-10-03T09:27:22.477Z,1.67
2022-10-03T09:30:04.223Z,1.98
2022-10-03T09:32:58.768Z,1.38
2022-10-03T09:35:58.725Z,1.88
2022-10-03T09:38:31.530Z,1.75
2022-10-03T09:41:36.938Z,1.40
2022-10-03T09:44:15.948Z,1.75
2022-10-03T09:47:27.776Z,1.50
2022-10-03T09:50:27.751Z,1.45
2022-10-03T09:53:24.416Z,1.50
2022-10-03T09:56:25.350Z,1.58
2022-10-03T09:59:13.266Z,1.50
2022-10-03T10:01:58.446Z,1.65
2022-10-03T10:04:57.812Z,2.08
2022-10-03T10:07:55.003Z,1.45
2022-10-03T10:10:44.907Z,1.50
2022-10-03T10:14:06.711Z,1.15
2022-10-03T10:16:37.874Z,1.67
2022-10-03T10:19:20.650Z,1.50
2022-10-03T10:21:53.001Z,1.33
2022-10-03T10:25:02.392Z,1.33
2022-10-03T10:27:42.997Z,1.17
2022-10-03T10:30:15.098Z,1.02
2022-10-03T10:33:02.641Z,1.25
2022-10-03T10:35:54.958Z,1.20
2022-10-03T10:38:43.502Z,1.70
2022-10-03T10:41:49.638Z,1.30
2022-10-03T10:44:34.838Z,1.20
2022-10-03T10:47:39.827Z,0.98
2022-10-03T10:50:29.811Z,1.40
2022-10-03T10:53:30.678Z,1.00
2022-10-03T10:56:27.224Z,1.20
2022-10-03T10:59:32.332Z,1.20
2022-10-03T11:02:48.697Z,1.65
2022-10-03T11:05:53.101Z,0.85
2022-10-03T11:08:38.546Z,0.85
2022-10-03T11:11:39.191Z,1.00
2022-10-03T11:14:24.783Z,1.00
2022-10-03T11:17:22.562Z,0.93
2022-10-03T11:19:58.050Z,0.88
2022-10-03T11:22:52.612Z,1.10
2022-10-03T11:25:37.629Z,0.98
2022-10-03T11:28:41.627Z,1.20
2022-10-03T11:31:45.929Z,0.90
2022-10-03T11:34:27.071Z,1.30
2022-10-03T11:37:30.913Z,1.17
2022-10-03T11:40:22.817Z,0.90
2022-10-03T11:43:21.959Z,1.00
2022-10-03T11:46:17.807Z,0.90
2022-10-03T11:49:00.082Z,1.17
2022-10-03T11:51:58.003Z,0.80
2022-10-03T11:54:32.703Z,0.90
2022-10-03T11:57:25.650Z,1.08
2022-10-03T12:00:15.230Z,0.70
2022-10-03T12:02:41.982Z,1.10
2022-10-03T12:05:28.137Z,0.65
2022-10-03T12:08:40.267Z,0.82
2022-10-03T12:11:32.912Z,0.93
2022-10-03T12:14:47.566Z,1.08
2022-10-03T12:17:36.998Z,0.73
2022-10-03T12:20:14.100Z,1.13
2022-10-03T12:22:45.301Z,0.90
2022-10-03T12:25:27.492Z,1.45
2022-10-03T12:28:01.069Z,0.80
2022-10-03T12:30:37.435Z,0.80
2022-10-03T12:33:28.073Z,1.20
2022-10-03T12:36:16.892Z,1.05
2022-10-03T12:38:53.617Z,0.75
2022-10-03T12:41:28.787Z,0.75
2022-10-03T12:44:21.649Z,1.00
2022-10-03T12:46:54.925Z,0.65
2022-10-03T12:49:56.436Z,0.77
2022-10-03T12:52:38.184Z,1.10
2022-10-03T12:55:20.155Z,0.80
2022-10-03T12:57:55.467Z,0.77
2022-10-03T13:00:56.041Z,1.10
2022-10-03T13:03:52.508Z,0.52
2022-10-03T13:06:44.431Z,0.73
2022-10-03T13:09:40.798Z,0.85
2022-10-03T13:12:34.156Z,1.00
2022-10-03T13:15:54.403Z,0.80
2022-10-03T13:18:48.452Z,0.85
2022-10-03T13:21:45.076Z,0.70
2022-10-03T13:24:20.467Z,1.35
2022-10-03T13:27:12.306Z,0.90
2022-10-03T13:29:44.976Z,0.65
2022-10-03T13:32:32.603Z,0.82
2022-10-03T13:35:38.802Z,1.02
2022-10-03T13:38:10.978Z,0.90
2022-10-03T13:40:45.647Z,1.02
2022-10-03T13:43:20.017Z,0.82
2022-10-03T13:45:50.123Z,0.82
2022-10-03T13:48:27.001Z,1.05
2022-10-03T13:51:16.316Z,1.40
2022-10-03T13:54:06.872Z,0.88
2022-10-03T13:56:57.696Z,0.80
2022-10-03T13:59:37.814Z,1.20
2022-10-03T14:02:10.234Z,0.95
2022-10-03T14:04:52.434Z,1.10
2022-10-03T14:07:38.589Z,0.80
2022-10-03T14:10:08.288Z,0.68
2022-10-03T14:12:56.991Z,0.70
2022-10-03T14:15:47.606Z,0.90
2022-10-03T14:18:17.009Z,0.63
2022-10-03T14:21:14.283Z,0.57
2022-10-03T14:23:44.898Z,0.73
2022-10-03T14:26:22.406Z,0.85
2022-10-03T14:29:01.536Z,1.00
2022-10-03T14:31:50.559Z,0.63
2022-10-03T14:34:27.986Z,1.10
2022-10-03T14:37:11.625Z,0.82
2022-10-03T14:39:56.448Z,1.13
2022-10-03T14:42:48.022Z,0.85
2022-10-03T14:45:23.918Z,0.98
2022-10-03T14:47:56.460Z,0.90
2022-10-03T14:50:30.190Z,0.70
2022-10-03T14:53:23.848Z,1.02
2022-10-03T14:56:02.754Z,0.60
2022-10-03T14:58:35.277Z,0.65
2022-10-03T15:01:20.508Z,0.90
2022-10-03T15:04:23.244Z,0.70
2022-10-03T15:06:56.920Z,0.85
2022-10-03T15:09:39.923Z,1.20
2022-10-03T15:12:17.701Z,0.98
2022-10-03T15:15:00.746Z,1.17
2022-10-03T15:17:31.301Z,1.50
2022-10-03T15:20:00.434Z,0.90
2022-10-03T15:22:35.586Z,1.02
2022-10-03T15:25:14.317Z,0.93
2022-10-03T15:27:43.318Z,0.90
2022-10-03T15:30:21.256Z,1.00
2022-10-03T15:32:49.816Z,1.00
2022-10-03T15:35:24.626Z,0.77
2022-10-03T15:37:52.354Z,1.20
2022-10-03T15:40:31.061Z,1.00
2022-10-03T15:43:09.405Z,0.82
2022-10-03T15:45:37.489Z,1.00
2022-10-03T15:48:12.992Z,0.90
2022-10-03T15:50:43.479Z,1.17
2022-10-03T15:53:35.508Z,1.15
2022-10-03T15:56:27.276Z,0.70
2022-10-03T15:58:56.227Z,1.00
2022-10-03T16:01:27.231Z,0.85
2022-10-03T16:04:00.933Z,1.05
2022-10-03T16:06:49.363Z,1.20
2022-10-03T16:09:22.097Z,0.80
2022-10-03T16:12:10.309Z,0.95
2022-10-03T16:14:47.096Z,0.77
2022-10-03T16:17:28.796Z,0.93
2022-10-03T16:20:02.713Z,1.50
2022-10-03T16:22:44.417Z,0.80
2022-10-03T16:25:25.100Z,0.90
2022-10-03T16:28:02.036Z,0.90
2022-10-03T16:30:36.213Z,0.82
2022-10-03T16:33:23.646Z,1.10
2022-10-03T16:35:54.634Z,1.08
2022-10-03T16:38:32.405Z,0.70
2022-10-03T16:41:17.711Z,1.20
2022-10-03T16:44:02.779Z,1.45
2022-10-03T16:46:36.244Z,1.00
2022-10-03T16:49:29.508Z,1.40
2022-10-03T16:52:07.170Z,1.15
2022-10-03T16:54:34.432Z,1.42
2022-10-03T16:57:05.777Z,1.63
2022-10-03T16:59:33.768Z,1.70
2022-10-03T17:02:10.198Z,1.50
2022-10-03T17:04:47.225Z,1.58
2022-10-03T17:07:23.035Z,1.52
2022-10-03T17:10:02.856Z,1.38
2022-10-03T17:12:41.852Z,1.80
2022-10-03T17:15:20.717Z,2.40
2022-10-03T17:18:15.861Z,2.40
2022-10-03T17:20:48.085Z,2.25
2022-10-03T17:23:32.450Z,1.70
2022-10-03T17:26:01.969Z,2.45
2022-10-03T17:28:37.539Z,1.90
2022-10-03T17:31:13.928Z,2.10
2022-10-03T17:33:48.551Z,2.13
2022-10-03T17:36:27.181Z,3.17
2022-10-03T17:39:04.824Z,3.22
2022-10-03T17:41:38.503Z,3.20
2022-10-03T17:44:23.505Z,3.42
2022-10-03T17:46:59.136Z,3.53
2022-10-03T17:49:42.747Z,3.20
2022-10-03T17:52:23.382Z,3.33
2022-10-03T17:55:22.621Z,3.00
2022-10-03T17:57:57.798Z,3.25
2022-10-03T18:00:44.538Z,3.47
2022-10-03T18:03:15.921Z,3.17
2022-10-03T18:05:50.890Z,2.67
2022-10-03T18:08:29.129Z,2.95
2022-10-03T18:10:58.320Z,2.47
2022-10-03T18:13:37.409Z,3.33
2022-10-03T18:16:11.112Z,3.78
2022-10-03T18:19:01.963Z,4.13
2022-10-03T18:21:38.040Z,4.43
2022-10-03T18:24:20.520Z,3.97
2022-10-03T18:27:27.139Z,4.32
2022-10-03T18:30:19.935Z,4.00
2022-10-03T18:32:48.241Z,4.75
2022-10-03T18:35:21.118Z,4.78
2022-10-03T18:37:56.058Z,5.07
2022-10-03T18:40:28.087Z,5.68
2022-10-03T18:42:55.874Z,6.80
2022-10-03T18:45:32.880Z,6.32
2022-10-03T18:48:11.556Z,6.93
2022-10-03T18:50:53.090Z,5.30
2022-10-03T18:53:46.476Z,5.45
2022-10-03T18:56:25.379Z,6.43
2022-10-03T18:59:14.903Z,7.05
2022-10-03T19:01:54.464Z,5.88
2022-10-03T19:04:42.966Z,5.13
2022-10-03T19:07:23.156Z,4.90
2022-10-03T19:10:05.202Z,4.35
2022-10-03T19:12:39.265Z,4.78
2022-10-03T19:15:22.097Z,4.28
2022-10-03T19:18:21.041Z,4.97
2022-10-03T19:20:53.646Z,4.85
2022-10-03T19:23:36.693Z,4.38
2022-10-03T19:26:09.866Z,4.05
2022-10-03T19:28:44.373Z,3.83
2022-10-03T19:31:22.337Z,4.55
2022-10-03T19:33:52.711Z,4.57
2022-10-03T19:36:23.534Z,4.20
2022-10-03T19:38:53.065Z,4.07
2022-10-03T19:41:31.324Z,4.20
2022-10-03T19:44:04.949Z,3.88
2022-10-03T19:46:40.280Z,3.88
2022-10-03T19:49:31.971Z,3.72
2022-10-03T19:52:14.322Z,3.33
2022-10-03T19:54:47.787Z,4.65
2022-10-03T19:57:37.538Z,2.90
2022-10-03T20:00:15.144Z,3.03
2022-10-03T20:02:44.290Z,3.33
2022-10-03T20:05:25.038Z,3.50
2022-10-03T20:08:00.171Z,3.20
2022-10-03T20:10:55.282Z,3.30
2022-10-03T20:13:22.072Z,2.83
2022-10-03T20:15:52.163Z,2.60
2022-10-03T20:18:30.273Z,3.25
2022-10-03T20:20:58.673Z,3.05
2022-10-03T20:23:28.337Z,2.67
2022-10-03T20:26:12.350Z,1.98
2022-10-03T20:29:00.723Z,2.70
2022-10-03T20:31:29.809Z,2.80
2022-10-03T20:34:00.745Z,2.80
2022-10-03T20:36:36.715Z,2.65
2022-10-03T20:39:28.399Z,2.28
2022-10-03T20:42:02.333Z,2.88
2022-10-03T20:44:47.579Z,3.13
2022-10-03T20:47:40.739Z,2.85
2022-10-03T20:50:13.843Z,3.30
2022-10-03T20:52:40.818Z,2.90
2022-10-03T20:55:19.297Z,3.05
2022-10-03T20:58:12.659Z,3.10
2022-10-03T21:00:45.575Z,2.92
2022-10-03T21:03:25.580Z,3.83
2022-10-03T21:05:55.488Z,2.85
2022-10-03T21:08:35.502Z,3.50
2022-10-03T21:11:26.664Z,2.97
2022-10-03T21:13:59.755Z,2.65
2022-10-03T21:16:34.360Z,3.00
2022-10-03T21:19:03.786Z,3.20
2022-10-03T21:21:43.020Z,2.85
2022-10-03T21:24:26.425Z,2.75
2022-10-03T21:27:12.252Z,2.75
2022-10-03T21:29:52.697Z,3.03
2022-10-03T21:32:37.861Z,2.92
2022-10-03T21:35:19.557Z,2.60
2022-10-03T21:38:07.947Z,2.45
2022-10-03T21:41:05.728Z,2.33
2022-10-03T21:43:52.671Z,2.60
2022-10-03T21:46:34.368Z,2.67
2022-10-03T21:49:22.827Z,2.65
2022-10-03T21:51:49.540Z,2.40
2022-10-03T21:54:18.975Z,2.42
2022-10-03T21:56:59.621Z,2.53
2022-10-03T21:59:52.787Z,2.53
2022-10-03T22:02:27.269Z,2.53
2022-10-03T22:05:06.022Z,2.63
2022-10-03T22:07:37.495Z,2.70
2022-10-03T22:10:21.736Z,2.70
2022-10-03T22:12:57.451Z,2.65
2022-10-03T22:15:39.102Z,2.60
2022-10-03T22:18:11.874Z,2.15
2022-10-03T22:20:53.639Z,2.10
2022-10-03T22:23:39.367Z,2.20
2022-10-03T22:26:21.292Z,2.30
2022-10-03T22:29:13.783Z,2.35
2022-10-03T22:31:51.105Z,2.05
2022-10-03T22:34:24.291Z,2.38
2022-10-03T22:36:51.545Z,2.35
2022-10-03T22:39:20.416Z,2.53
2022-10-03T22:41:51.661Z,2.50
2022-10-03T22:44:22.778Z,1.90
2022-10-03T22:46:55.278Z,1.83
2022-10-03T22:49:37.710Z,1.98
2022-10-03T22:52:07.783Z,2.17
2022-10-03T22:54:40.598Z,1.77
2022-10-03T22:57:10.139Z,1.80
2022-10-03T22:59:57.411Z,1.75
2022-10-03T23:02:33.566Z,1.73
2022-10-03T23:05:05.317Z,2.00
2022-10-03T23:07:53.044Z,1.67
2022-10-03T23:10:48.482Z,1.90
2022-10-03T23:13:41.406Z,1.98
2022-10-03T23:16:29.150Z,1.67
2022-10-03T23:19:14.116Z,1.83
2022-10-03T23:21:47.308Z,1.92
2022-10-03T23:24:21.536Z,1.20
2022-10-03T23:26:54.087Z,1.77
2022-10-03T23:29:21.162Z,1.83
2022-10-03T23:32:37.168Z,2.00
2022-10-03T23:35:34.970Z,1.73
2022-10-03T23:38:02.292Z,2.00
2022-10-03T23:40:45.161Z,1.48
2022-10-03T23:43:33.539Z,2.08
2022-10-03T23:46:03.509Z,1.60
2022-10-03T23:48:37.999Z,1.92
2022-10-03T23:51:06.959Z,1.65
2022-10-03T23:53:44.281Z,1.98
2022-10-03T23:56:23.445Z,1.63
2022-10-03T23:59:03.646Z,1.58
